sensor_id;sensor_type;location;lat;lon;timestamp;P1;durP1;ratioP1;P2;durP2;ratioP2
18383;SDS011;9318;48.644;9.456;2023-07-22T00:00:18;0.90;;;0.90;;
18383;SDS011;9318;48.644;9.456;2023-07-22T00:02:47;1.20;;;1.20;;
18383;SDS011;9318;48.644;9.456;2023-07-22T00:05:15;1.00;;;1.00;;
18383;SDS011;9318;48.644;9.456;2023-07-22T00:07:47;1.10;;;1.10;;
18383;SDS011;9318;48.644;9.456;2023-07-22T00:10:13;0.90;;;0.90;;
18383;SDS011;9318;48.644;9.456;2023-07-22T00:12:42;1.10;;;1.10;;
18383;SDS011;9318;48.644;9.456;2023-07-22T00:15:09;1.00;;;1.00;;
18383;SDS011;9318;48.644;9.456;2023-07-22T00:17:37;1.10;;;1.10;;
18383;SDS011;9318;48.644;9.456;2023-07-22T00:20:05;1.00;;;1.00;;
18383;SDS011;9318;48.644;9.456;2023-07-22T00:22:37;1.10;;;1.10;;
18383;SDS011;9318;48.644;9.456;2023-07-22T00:25:05;1.00;;;1.00;;
18383;SDS011;9318;48.644;9.456;2023-07-22T00:27:35;1.00;;;1.00;;
18383;SDS011;9318;48.644;9.456;2023-07-22T00:30:02;1.00;;;1.00;;
18383;SDS011;9318;48.644;9.456;2023-07-22T00:32:29;1.00;;;1.00;;
18383;SDS011;9318;48.644;9.456;2023-07-22T00:34:56;1.00;;;1.00;;
18383;SDS011;9318;48.644;9.456;2023-07-22T00:37:22;1.20;;;1.20;;
18383;SDS011;9318;48.644;9.456;2023-07-22T00:39:51;1.00;;;1.00;;
18383;SDS011;9318;48.644;9.456;2023-07-22T00:42:19;1.00;;;1.00;;
18383;SDS011;9318;48.644;9.456;2023-07-22T00:44:46;1.00;;;1.00;;
18383;SDS011;9318;48.644;9.456;2023-07-22T00:47:12;1.10;;;1.10;;
18383;SDS011;9318;48.644;9.456;2023-07-22T00:49:40;1.00;;;1.00;;
18383;SDS011;9318;48.644;9.456;2023-07-22T00:52:07;1.00;;;1.00;;
18383;SDS011;9318;48.644;9.456;2023-07-22T00:54:34;0.97;;;0.97;;
18383;SDS011;9318;48.644;9.456;2023-07-22T00:57:02;1.00;;;1.00;;
18383;SDS011;9318;48.644;9.456;2023-07-22T00:59:29;1.10;;;1.10;;
18383;SDS011;9318;48.644;9.456;2023-07-22T01:01:57;1.00;;;1.00;;
18383;SDS011;9318;48.644;9.456;2023-07-22T01:04:23;1.00;;;1.00;;
18383;SDS011;9318;48.644;9.456;2023-07-22T01:06:51;1.00;;;1.00;;
18383;SDS011;9318;48.644;9.456;2023-07-22T01:09:19;1.10;;;1.10;;
18383;SDS011;9318;48.644;9.456;2023-07-22T01:11:45;1.00;;;1.00;;
18383;SDS011;9318;48.644;9.456;2023-07-22T01:14:14;1.10;;;1.10;;
18383;SDS011;9318;48.644;9.456;2023-07-22T01:16:41;1.10;;;1.10;;
18383;SDS011;9318;48.644;9.456;2023-07-22T01:19:09;1.00;;;1.00;;
18383;SDS011;9318;48.644;9.456;2023-07-22T01:21:39;0.90;;;0.90;;
18383;SDS011;9318;48.644;9.456;2023-07-22T01:24:09;1.20;;;1.20;;
18383;SDS011;9318;48.644;9.456;2023-07-22T01:26:36;1.00;;;1.00;;
18383;SDS011;9318;48.644;9.456;2023-07-22T01:29:04;1.00;;;1.00;;
18383;SDS011;9318;48.644;9.456;2023-07-22T01:31:33;1.00;;;1.00;;
18383;SDS011;9318;48.644;9.456;2023-07-22T01:34:00;1.00;;;1.00;;
18383;SDS011;9318;48.644;9.456;2023-07-22T01:36:29;1.00;;;1.00;;
18383;SDS011;9318;48.644;9.456;2023-07-22T01:38:55;1.10;;;1.10;;
18383;SDS011;9318;48.644;9.456;2023-07-22T01:41:24;0.90;;;0.90;;
18383;SDS011;9318;48.644;9.456;2023-07-22T01:43:50;0.90;;;0.90;;
18383;SDS011;9318;48.644;9.456;2023-07-22T01:46:17;1.10;;;1.10;;
18383;SDS011;9318;48.644;9.456;2023-07-22T01:48:44;1.20;;;1.20;;
18383;SDS011;9318;48.644;9.456;2023-07-22T01:51:11;1.10;;;1.10;;
18383;SDS011;9318;48.644;9.456;2023-07-22T01:53:37;1.00;;;1.00;;
18383;SDS011;9318;48.644;9.456;2023-07-22T01:56:04;1.03;;;1.03;;
18383;SDS011;9318;48.644;9.456;2023-07-22T01:58:32;1.10;;;1.10;;
18383;SDS011;9318;48.644;9.456;2023-07-22T02:00:59;1.00;;;1.00;;
18383;SDS011;9318;48.644;9.456;2023-07-22T02:03:26;1.07;;;1.07;;
18383;SDS011;9318;48.644;9.456;2023-07-22T02:05:53;1.00;;;1.00;;
18383;SDS011;9318;48.644;9.456;2023-07-22T02:08:19;1.00;;;1.00;;
18383;SDS011;9318;48.644;9.456;2023-07-22T02:10:46;1.00;;;1.00;;
18383;SDS011;9318;48.644;9.456;2023-07-22T02:13:13;1.00;;;1.00;;
18383;SDS011;9318;48.644;9.456;2023-07-22T02:15:42;1.10;;;1.10;;
18383;SDS011;9318;48.644;9.456;2023-07-22T02:18:08;0.93;;;0.93;;
18383;SDS011;9318;48.644;9.456;2023-07-22T02:20:35;0.90;;;0.90;;
18383;SDS011;9318;48.644;9.456;2023-07-22T02:23:02;1.00;;;1.00;;
18383;SDS011;9318;48.644;9.456;2023-07-22T02:25:29;1.10;;;1.10;;
18383;SDS011;9318;48.644;9.456;2023-07-22T02:27:56;1.10;;;1.10;;
18383;SDS011;9318;48.644;9.456;2023-07-22T02:30:22;1.10;;;1.10;;
18383;SDS011;9318;48.644;9.456;2023-07-22T02:32:50;1.10;;;1.10;;
18383;SDS011;9318;48.644;9.456;2023-07-22T02:35:17;1.00;;;1.00;;
18383;SDS011;9318;48.644;9.456;2023-07-22T02:37:44;1.00;;;1.00;;
18383;SDS011;9318;48.644;9.456;2023-07-22T02:40:11;1.00;;;1.00;;
18383;SDS011;9318;48.644;9.456;2023-07-22T02:42:38;1.10;;;1.10;;
18383;SDS011;9318;48.644;9.456;2023-07-22T02:45:05;1.13;;;1.13;;
18383;SDS011;9318;48.644;9.456;2023-07-22T02:47:34;1.00;;;1.00;;
18383;SDS011;9318;48.644;9.456;2023-07-22T02:50:02;0.97;;;0.97;;
18383;SDS011;9318;48.644;9.456;2023-07-22T02:52:29;1.00;;;1.00;;
18383;SDS011;9318;48.644;9.456;2023-07-22T02:55:09;1.10;;;1.10;;
18383;SDS011;9318;48.644;9.456;2023-07-22T02:57:37;1.10;;;1.10;;
18383;SDS011;9318;48.644;9.456;2023-07-22T03:00:05;1.07;;;1.07;;
18383;SDS011;9318;48.644;9.456;2023-07-22T03:02:33;1.20;;;1.20;;
18383;SDS011;9318;48.644;9.456;2023-07-22T03:05:02;0.97;;;0.97;;
18383;SDS011;9318;48.644;9.456;2023-07-22T03:07:32;1.10;;;1.10;;
18383;SDS011;9318;48.644;9.456;2023-07-22T03:09:59;1.00;;;1.00;;
18383;SDS011;9318;48.644;9.456;2023-07-22T03:12:26;1.00;;;1.00;;
18383;SDS011;9318;48.644;9.456;2023-07-22T03:14:53;1.20;;;1.20;;
18383;SDS011;9318;48.644;9.456;2023-07-22T03:17:20;1.10;;;1.10;;
18383;SDS011;9318;48.644;9.456;2023-07-22T03:19:47;0.90;;;0.90;;
18383;SDS011;9318;48.644;9.456;2023-07-22T03:22:15;1.10;;;1.10;;
18383;SDS011;9318;48.644;9.456;2023-07-22T03:24:42;1.00;;;1.00;;
18383;SDS011;9318;48.644;9.456;2023-07-22T03:27:10;1.03;;;1.03;;
18383;SDS011;9318;48.644;9.456;2023-07-22T03:29:37;1.00;;;1.00;;
18383;SDS011;9318;48.644;9.456;2023-07-22T03:32:04;1.00;;;1.00;;
18383;SDS011;9318;48.644;9.456;2023-07-22T03:34:31;1.10;;;1.10;;
18383;SDS011;9318;48.644;9.456;2023-07-22T03:36:58;1.00;;;1.00;;
18383;SDS011;9318;48.644;9.456;2023-07-22T03:39:26;1.00;;;1.00;;
18383;SDS011;9318;48.644;9.456;2023-07-22T03:41:53;1.10;;;1.10;;
18383;SDS011;9318;48.644;9.456;2023-07-22T03:44:20;1.20;;;1.20;;
18383;SDS011;9318;48.644;9.456;2023-07-22T03:46:46;1.00;;;1.00;;
18383;SDS011;9318;48.644;9.456;2023-07-22T03:49:13;1.00;;;1.00;;
18383;SDS011;9318;48.644;9.456;2023-07-22T03:51:40;1.00;;;1.00;;
18383;SDS011;9318;48.644;9.456;2023-07-22T03:54:07;1.10;;;1.10;;
18383;SDS011;9318;48.644;9.456;2023-07-22T03:56:35;1.10;;;1.10;;
18383;SDS011;9318;48.644;9.456;2023-07-22T03:59:03;1.00;;;1.00;;
18383;SDS011;9318;48.644;9.456;2023-07-22T04:01:30;1.10;;;1.10;;
18383;SDS011;9318;48.644;9.456;2023-07-22T04:03:57;1.10;;;1.10;;
18383;SDS011;9318;48.644;9.456;2023-07-22T04:06:24;1.00;;;1.00;;
18383;SDS011;9318;48.644;9.456;2023-07-22T04:08:51;1.00;;;1.00;;
18383;SDS011;9318;48.644;9.456;2023-07-22T04:11:18;1.10;;;1.10;;
18383;SDS011;9318;48.644;9.456;2023-07-22T04:13:46;1.07;;;1.07;;
18383;SDS011;9318;48.644;9.456;2023-07-22T04:16:13;1.10;;;1.10;;
18383;SDS011;9318;48.644;9.456;2023-07-22T04:18:40;1.10;;;1.10;;
18383;SDS011;9318;48.644;9.456;2023-07-22T04:21:07;1.17;;;1.17;;
18383;SDS011;9318;48.644;9.456;2023-07-22T04:23:34;1.00;;;1.00;;
18383;SDS011;9318;48.644;9.456;2023-07-22T04:26:01;1.00;;;1.00;;
18383;SDS011;9318;48.644;9.456;2023-07-22T04:28:29;0.90;;;0.90;;
18383;SDS011;9318;48.644;9.456;2023-07-22T04:30:58;0.97;;;0.97;;
18383;SDS011;9318;48.644;9.456;2023-07-22T04:33:25;1.10;;;1.10;;
18383;SDS011;9318;48.644;9.456;2023-07-22T04:35:53;1.07;;;1.07;;
18383;SDS011;9318;48.644;9.456;2023-07-22T04:38:20;1.00;;;1.00;;
18383;SDS011;9318;48.644;9.456;2023-07-22T04:40:47;1.10;;;1.10;;
18383;SDS011;9318;48.644;9.456;2023-07-22T04:43:14;1.00;;;1.00;;
18383;SDS011;9318;48.644;9.456;2023-07-22T04:45:43;1.00;;;1.00;;
18383;SDS011;9318;48.644;9.456;2023-07-22T04:48:14;1.00;;;1.00;;
18383;SDS011;9318;48.644;9.456;2023-07-22T04:50:41;1.00;;;1.00;;
18383;SDS011;9318;48.644;9.456;2023-07-22T04:53:10;1.00;;;1.00;;
18383;SDS011;9318;48.644;9.456;2023-07-22T04:55:38;1.00;;;1.00;;
18383;SDS011;9318;48.644;9.456;2023-07-22T04:58:05;1.10;;;1.10;;
18383;SDS011;9318;48.644;9.456;2023-07-22T05:00:33;0.93;;;0.93;;
18383;SDS011;9318;48.644;9.456;2023-07-22T05:03:00;1.10;;;1.10;;
18383;SDS011;9318;48.644;9.456;2023-07-22T05:05:28;1.00;;;1.00;;
18383;SDS011;9318;48.644;9.456;2023-07-22T05:07:55;1.00;;;1.00;;
18383;SDS011;9318;48.644;9.456;2023-07-22T05:10:22;1.00;;;1.00;;
18383;SDS011;9318;48.644;9.456;2023-07-22T05:12:49;1.00;;;1.00;;
18383;SDS011;9318;48.644;9.456;2023-07-22T05:15:16;0.90;;;0.90;;
18383;SDS011;9318;48.644;9.456;2023-07-22T05:17:43;0.80;;;0.80;;
18383;SDS011;9318;48.644;9.456;2023-07-22T05:20:10;1.00;;;1.00;;
18383;SDS011;9318;48.644;9.456;2023-07-22T05:22:39;1.00;;;1.00;;
18383;SDS011;9318;48.644;9.456;2023-07-22T05:25:06;0.90;;;0.90;;
18383;SDS011;9318;48.644;9.456;2023-07-22T05:27:34;0.90;;;0.90;;
18383;SDS011;9318;48.644;9.456;2023-07-22T05:30:01;0.70;;;0.70;;
18383;SDS011;9318;48.644;9.456;2023-07-22T05:32:28;0.80;;;0.80;;
18383;SDS011;9318;48.644;9.456;2023-07-22T05:34:55;0.80;;;0.80;;
18383;SDS011;9318;48.644;9.456;2023-07-22T05:37:22;0.70;;;0.70;;
18383;SDS011;9318;48.644;9.456;2023-07-22T05:39:50;0.80;;;0.80;;
18383;SDS011;9318;48.644;9.456;2023-07-22T05:42:17;0.70;;;0.70;;
18383;SDS011;9318;48.644;9.456;2023-07-22T05:44:44;0.70;;;0.70;;
18383;SDS011;9318;48.644;9.456;2023-07-22T05:47:11;0.70;;;0.70;;
18383;SDS011;9318;48.644;9.456;2023-07-22T05:49:38;0.80;;;0.80;;
18383;SDS011;9318;48.644;9.456;2023-07-22T05:52:05;0.70;;;0.70;;
18383;SDS011;9318;48.644;9.456;2023-07-22T05:54:32;0.70;;;0.70;;
18383;SDS011;9318;48.644;9.456;2023-07-22T05:57:00;0.70;;;0.70;;
18383;SDS011;9318;48.644;9.456;2023-07-22T05:59:28;0.60;;;0.60;;
18383;SDS011;9318;48.644;9.456;2023-07-22T06:01:56;0.70;;;0.70;;
18383;SDS011;9318;48.644;9.456;2023-07-22T06:04:22;0.63;;;0.63;;
18383;SDS011;9318;48.644;9.456;2023-07-22T06:06:49;0.70;;;0.70;;
18383;SDS011;9318;48.644;9.456;2023-07-22T06:09:16;0.65;;;0.65;;
18383;SDS011;9318;48.644;9.456;2023-07-22T06:11:43;0.70;;;0.70;;
18383;SDS011;9318;48.644;9.456;2023-07-22T06:14:11;0.60;;;0.60;;
18383;SDS011;9318;48.644;9.456;2023-07-22T06:16:38;0.70;;;0.70;;
18383;SDS011;9318;48.644;9.456;2023-07-22T06:19:04;0.65;;;0.65;;
18383;SDS011;9318;48.644;9.456;2023-07-22T06:21:31;0.50;;;0.50;;
18383;SDS011;9318;48.644;9.456;2023-07-22T06:23:58;0.63;;;0.63;;
18383;SDS011;9318;48.644;9.456;2023-07-22T06:26:24;0.60;;;0.60;;
18383;SDS011;9318;48.644;9.456;2023-07-22T06:28:51;0.60;;;0.60;;
18383;SDS011;9318;48.644;9.456;2023-07-22T06:31:19;0.50;;;0.50;;
18383;SDS011;9318;48.644;9.456;2023-07-22T06:33:46;0.50;;;0.50;;
18383;SDS011;9318;48.644;9.456;2023-07-22T06:36:13;0.60;;;0.60;;
18383;SDS011;9318;48.644;9.456;2023-07-22T06:38:41;0.43;;;0.43;;
18383;SDS011;9318;48.644;9.456;2023-07-22T06:41:08;0.50;;;0.50;;
18383;SDS011;9318;48.644;9.456;2023-07-22T06:43:35;0.40;;;0.40;;
18383;SDS011;9318;48.644;9.456;2023-07-22T06:46:01;0.40;;;0.40;;
18383;SDS011;9318;48.644;9.456;2023-07-22T06:48:30;0.50;;;0.50;;
18383;SDS011;9318;48.644;9.456;2023-07-22T06:50:57;0.40;;;0.40;;
18383;SDS011;9318;48.644;9.456;2023-07-22T06:53:23;0.43;;;0.43;;
18383;SDS011;9318;48.644;9.456;2023-07-22T06:55:50;0.30;;;0.30;;
18383;SDS011;9318;48.644;9.456;2023-07-22T06:58:17;0.40;;;0.40;;
18383;SDS011;9318;48.644;9.456;2023-07-22T07:00:45;0.40;;;0.40;;
18383;SDS011;9318;48.644;9.456;2023-07-22T07:03:11;0.30;;;0.30;;
18383;SDS011;9318;48.644;9.456;2023-07-22T07:05:40;0.30;;;0.30;;
18383;SDS011;9318;48.644;9.456;2023-07-22T07:08:07;0.40;;;0.40;;
18383;SDS011;9318;48.644;9.456;2023-07-22T07:10:36;0.30;;;0.30;;
18383;SDS011;9318;48.644;9.456;2023-07-22T07:13:04;0.30;;;0.30;;
18383;SDS011;9318;48.644;9.456;2023-07-22T07:15:30;0.45;;;0.45;;
18383;SDS011;9318;48.644;9.456;2023-07-22T07:17:57;0.40;;;0.40;;
18383;SDS011;9318;48.644;9.456;2023-07-22T07:20:24;0.40;;;0.40;;
18383;SDS011;9318;48.644;9.456;2023-07-22T07:22:52;0.40;;;0.40;;
18383;SDS011;9318;48.644;9.456;2023-07-22T07:25:19;0.40;;;0.40;;
18383;SDS011;9318;48.644;9.456;2023-07-22T07:27:45;0.40;;;0.40;;
18383;SDS011;9318;48.644;9.456;2023-07-22T07:30:12;0.30;;;0.30;;
18383;SDS011;9318;48.644;9.456;2023-07-22T07:32:39;0.40;;;0.40;;
18383;SDS011;9318;48.644;9.456;2023-07-22T07:35:06;0.30;;;0.30;;
18383;SDS011;9318;48.644;9.456;2023-07-22T07:37:34;0.40;;;0.40;;
18383;SDS011;9318;48.644;9.456;2023-07-22T07:40:02;0.40;;;0.40;;
18383;SDS011;9318;48.644;9.456;2023-07-22T07:42:29;0.38;;;0.38;;
18383;SDS011;9318;48.644;9.456;2023-07-22T07:44:56;0.30;;;0.30;;
18383;SDS011;9318;48.644;9.456;2023-07-22T07:47:23;0.32;;;0.32;;
18383;SDS011;9318;48.644;9.456;2023-07-22T07:49:49;0.30;;;0.30;;
18383;SDS011;9318;48.644;9.456;2023-07-22T07:52:16;0.30;;;0.30;;
18383;SDS011;9318;48.644;9.456;2023-07-22T07:54:43;0.30;;;0.30;;
18383;SDS011;9318;48.644;9.456;2023-07-22T07:57:11;0.20;;;0.20;;
18383;SDS011;9318;48.644;9.456;2023-07-22T07:59:38;0.30;;;0.30;;
18383;SDS011;9318;48.644;9.456;2023-07-22T08:02:05;0.40;;;0.40;;
18383;SDS011;9318;48.644;9.456;2023-07-22T08:04:34;0.30;;;0.30;;
18383;SDS011;9318;48.644;9.456;2023-07-22T08:07:01;0.30;;;0.30;;
18383;SDS011;9318;48.644;9.456;2023-07-22T08:09:29;0.15;;;0.15;;
18383;SDS011;9318;48.644;9.456;2023-07-22T08:11:56;0.22;;;0.22;;
18383;SDS011;9318;48.644;9.456;2023-07-22T08:14:24;0.30;;;0.30;;
18383;SDS011;9318;48.644;9.456;2023-07-22T08:16:51;0.20;;;0.20;;
18383;SDS011;9318;48.644;9.456;2023-07-22T08:19:18;0.30;;;0.30;;
18383;SDS011;9318;48.644;9.456;2023-07-22T08:21:44;0.30;;;0.30;;
18383;SDS011;9318;48.644;9.456;2023-07-22T08:24:11;0.30;;;0.30;;
18383;SDS011;9318;48.644;9.456;2023-07-22T08:26:38;0.30;;;0.30;;
18383;SDS011;9318;48.644;9.456;2023-07-22T08:29:05;0.30;;;0.30;;
18383;SDS011;9318;48.644;9.456;2023-07-22T08:31:33;0.20;;;0.20;;
18383;SDS011;9318;48.644;9.456;2023-07-22T08:34:01;0.20;;;0.20;;
18383;SDS011;9318;48.644;9.456;2023-07-22T08:36:27;0.30;;;0.30;;
18383;SDS011;9318;48.644;9.456;2023-07-22T08:38:54;0.30;;;0.30;;
18383;SDS011;9318;48.644;9.456;2023-07-22T08:41:21;0.20;;;0.20;;
18383;SDS011;9318;48.644;9.456;2023-07-22T08:43:50;0.20;;;0.20;;
18383;SDS011;9318;48.644;9.456;2023-07-22T08:46:17;0.15;;;0.15;;
18383;SDS011;9318;48.644;9.456;2023-07-22T08:48:47;0.20;;;0.20;;
18383;SDS011;9318;48.644;9.456;2023-07-22T08:51:19;0.30;;;0.30;;
18383;SDS011;9318;48.644;9.456;2023-07-22T08:53:48;0.30;;;0.30;;
18383;SDS011;9318;48.644;9.456;2023-07-22T08:56:16;0.20;;;0.20;;
18383;SDS011;9318;48.644;9.456;2023-07-22T08:58:43;0.25;;;0.25;;
18383;SDS011;9318;48.644;9.456;2023-07-22T09:01:12;0.25;;;0.25;;
18383;SDS011;9318;48.644;9.456;2023-07-22T09:03:39;0.30;;;0.30;;
18383;SDS011;9318;48.644;9.456;2023-07-22T09:06:09;0.30;;;0.30;;
18383;SDS011;9318;48.644;9.456;2023-07-22T09:08:37;0.20;;;0.20;;
18383;SDS011;9318;48.644;9.456;2023-07-22T09:11:04;0.30;;;0.30;;
18383;SDS011;9318;48.644;9.456;2023-07-22T09:13:32;0.30;;;0.30;;
18383;SDS011;9318;48.644;9.456;2023-07-22T09:16:00;0.22;;;0.22;;
18383;SDS011;9318;48.644;9.456;2023-07-22T09:18:27;0.20;;;0.20;;
18383;SDS011;9318;48.644;9.456;2023-07-22T09:20:54;0.28;;;0.28;;
18383;SDS011;9318;48.644;9.456;2023-07-22T09:23:32;0.20;;;0.20;;
18383;SDS011;9318;48.644;9.456;2023-07-22T09:26:08;0.30;;;0.30;;
18383;SDS011;9318;48.644;9.456;2023-07-22T09:28:47;0.20;;;0.20;;
18383;SDS011;9318;48.644;9.456;2023-07-22T09:31:14;0.20;;;0.20;;
18383;SDS011;9318;48.644;9.456;2023-07-22T09:33:41;0.20;;;0.20;;
18383;SDS011;9318;48.644;9.456;2023-07-22T09:36:09;0.30;;;0.30;;
18383;SDS011;9318;48.644;9.456;2023-07-22T09:38:38;0.30;;;0.30;;
18383;SDS011;9318;48.644;9.456;2023-07-22T09:41:05;0.30;;;0.30;;
18383;SDS011;9318;48.644;9.456;2023-07-22T09:43:35;0.40;;;0.40;;
18383;SDS011;9318;48.644;9.456;2023-07-22T09:46:06;0.38;;;0.38;;
18383;SDS011;9318;48.644;9.456;2023-07-22T09:48:40;0.40;;;0.40;;
18383;SDS011;9318;48.644;9.456;2023-07-22T09:51:11;0.32;;;0.32;;
18383;SDS011;9318;48.644;9.456;2023-07-22T09:53:45;0.35;;;0.35;;
18383;SDS011;9318;48.644;9.456;2023-07-22T09:56:12;0.40;;;0.40;;
18383;SDS011;9318;48.644;9.456;2023-07-22T09:58:39;0.50;;;0.50;;
18383;SDS011;9318;48.644;9.456;2023-07-22T10:01:07;0.45;;;0.45;;
18383;SDS011;9318;48.644;9.456;2023-07-22T10:03:36;0.50;;;0.50;;
18383;SDS011;9318;48.644;9.456;2023-07-22T10:06:05;0.50;;;0.50;;
18383;SDS011;9318;48.644;9.456;2023-07-22T10:08:33;0.50;;;0.50;;
18383;SDS011;9318;48.644;9.456;2023-07-22T10:11:04;0.50;;;0.50;;
18383;SDS011;9318;48.644;9.456;2023-07-22T10:13:35;0.40;;;0.40;;
18383;SDS011;9318;48.644;9.456;2023-07-22T10:16:02;0.40;;;0.40;;
18383;SDS011;9318;48.644;9.456;2023-07-22T10:18:31;0.30;;;0.30;;
18383;SDS011;9318;48.644;9.456;2023-07-22T10:20:58;0.50;;;0.50;;
18383;SDS011;9318;48.644;9.456;2023-07-22T10:23:26;0.50;;;0.50;;
18383;SDS011;9318;48.644;9.456;2023-07-22T10:25:55;0.40;;;0.40;;
18383;SDS011;9318;48.644;9.456;2023-07-22T10:28:25;0.40;;;0.40;;
18383;SDS011;9318;48.644;9.456;2023-07-22T10:30:52;0.50;;;0.50;;
18383;SDS011;9318;48.644;9.456;2023-07-22T10:33:19;0.40;;;0.40;;
18383;SDS011;9318;48.644;9.456;2023-07-22T10:36:00;0.40;;;0.40;;
18383;SDS011;9318;48.644;9.456;2023-07-22T10:38:29;0.40;;;0.40;;
18383;SDS011;9318;48.644;9.456;2023-07-22T10:40:56;0.47;;;0.47;;
18383;SDS011;9318;48.644;9.456;2023-07-22T10:43:24;0.30;;;0.30;;
18383;SDS011;9318;48.644;9.456;2023-07-22T10:45:54;0.40;;;0.40;;
18383;SDS011;9318;48.644;9.456;2023-07-22T10:48:23;0.40;;;0.40;;
18383;SDS011;9318;48.644;9.456;2023-07-22T10:50:53;0.50;;;0.50;;
18383;SDS011;9318;48.644;9.456;2023-07-22T10:53:28;0.40;;;0.40;;
18383;SDS011;9318;48.644;9.456;2023-07-22T10:56:10;0.40;;;0.40;;
18383;SDS011;9318;48.644;9.456;2023-07-22T10:58:55;0.40;;;0.40;;
18383;SDS011;9318;48.644;9.456;2023-07-22T11:01:24;0.50;;;0.50;;
18383;SDS011;9318;48.644;9.456;2023-07-22T11:04:06;0.43;;;0.43;;
18383;SDS011;9318;48.644;9.456;2023-07-22T11:06:52;0.50;;;0.50;;
18383;SDS011;9318;48.644;9.456;2023-07-22T11:09:36;0.40;;;0.40;;
18383;SDS011;9318;48.644;9.456;2023-07-22T11:12:09;0.50;;;0.50;;
18383;SDS011;9318;48.644;9.456;2023-07-22T11:14:44;0.38;;;0.38;;
18383;SDS011;9318;48.644;9.456;2023-07-22T11:17:12;0.50;;;0.50;;
18383;SDS011;9318;48.644;9.456;2023-07-22T11:19:39;0.40;;;0.40;;
18383;SDS011;9318;48.644;9.456;2023-07-22T11:22:07;0.40;;;0.40;;
18383;SDS011;9318;48.644;9.456;2023-07-22T11:24:34;0.47;;;0.47;;
18383;SDS011;9318;48.644;9.456;2023-07-22T11:27:02;0.50;;;0.50;;
18383;SDS011;9318;48.644;9.456;2023-07-22T11:29:30;0.40;;;0.40;;
18383;SDS011;9318;48.644;9.456;2023-07-22T11:31:58;0.40;;;0.40;;
18383;SDS011;9318;48.644;9.456;2023-07-22T11:34:25;0.40;;;0.40;;
18383;SDS011;9318;48.644;9.456;2023-07-22T11:36:52;0.40;;;0.40;;
18383;SDS011;9318;48.644;9.456;2023-07-22T11:39:20;0.40;;;0.40;;
18383;SDS011;9318;48.644;9.456;2023-07-22T11:41:48;0.40;;;0.40;;
18383;SDS011;9318;48.644;9.456;2023-07-22T11:44:16;0.50;;;0.50;;
18383;SDS011;9318;48.644;9.456;2023-07-22T11:46:49;0.50;;;0.50;;
18383;SDS011;9318;48.644;9.456;2023-07-22T11:49:23;0.40;;;0.40;;
18383;SDS011;9318;48.644;9.456;2023-07-22T11:51:51;0.40;;;0.40;;
18383;SDS011;9318;48.644;9.456;2023-07-22T11:54:20;0.40;;;0.40;;
18383;SDS011;9318;48.644;9.456;2023-07-22T11:56:47;0.40;;;0.40;;
18383;SDS011;9318;48.644;9.456;2023-07-22T11:59:14;0.40;;;0.40;;
18383;SDS011;9318;48.644;9.456;2023-07-22T12:01:42;0.30;;;0.30;;
18383;SDS011;9318;48.644;9.456;2023-07-22T12:04:10;0.40;;;0.40;;
18383;SDS011;9318;48.644;9.456;2023-07-22T12:06:39;0.40;;;0.40;;
18383;SDS011;9318;48.644;9.456;2023-07-22T12:09:06;0.40;;;0.40;;
18383;SDS011;9318;48.644;9.456;2023-07-22T12:11:35;0.50;;;0.50;;
18383;SDS011;9318;48.644;9.456;2023-07-22T12:14:06;0.32;;;0.32;;
18383;SDS011;9318;48.644;9.456;2023-07-22T12:16:34;0.40;;;0.40;;
18383;SDS011;9318;48.644;9.456;2023-07-22T12:19:01;0.40;;;0.40;;
18383;SDS011;9318;48.644;9.456;2023-07-22T12:21:27;0.40;;;0.40;;
18383;SDS011;9318;48.644;9.456;2023-07-22T12:23:55;0.40;;;0.40;;
18383;SDS011;9318;48.644;9.456;2023-07-22T12:26:22;0.40;;;0.40;;
18383;SDS011;9318;48.644;9.456;2023-07-22T12:28:49;0.40;;;0.40;;
18383;SDS011;9318;48.644;9.456;2023-07-22T12:31:16;0.43;;;0.43;;
18383;SDS011;9318;48.644;9.456;2023-07-22T12:33:43;0.40;;;0.40;;
18383;SDS011;9318;48.644;9.456;2023-07-22T12:36:11;0.40;;;0.40;;
18383;SDS011;9318;48.644;9.456;2023-07-22T12:38:38;0.40;;;0.40;;
18383;SDS011;9318;48.644;9.456;2023-07-22T12:41:06;0.40;;;0.40;;
18383;SDS011;9318;48.644;9.456;2023-07-22T12:43:33;0.40;;;0.40;;
18383;SDS011;9318;48.644;9.456;2023-07-22T12:46:00;0.40;;;0.40;;
18383;SDS011;9318;48.644;9.456;2023-07-22T12:48:26;0.40;;;0.40;;
18383;SDS011;9318;48.644;9.456;2023-07-22T12:50:53;0.40;;;0.40;;
18383;SDS011;9318;48.644;9.456;2023-07-22T12:53:20;0.40;;;0.40;;
18383;SDS011;9318;48.644;9.456;2023-07-22T12:55:47;0.45;;;0.45;;
18383;SDS011;9318;48.644;9.456;2023-07-22T12:58:15;0.40;;;0.40;;
18383;SDS011;9318;48.644;9.456;2023-07-22T13:00:42;0.40;;;0.40;;
18383;SDS011;9318;48.644;9.456;2023-07-22T13:03:09;0.40;;;0.40;;
18383;SDS011;9318;48.644;9.456;2023-07-22T13:05:35;0.38;;;0.38;;
18383;SDS011;9318;48.644;9.456;2023-07-22T13:08:02;0.30;;;0.30;;
18383;SDS011;9318;48.644;9.456;2023-07-22T13:10:30;0.40;;;0.40;;
18383;SDS011;9318;48.644;9.456;2023-07-22T13:12:59;0.40;;;0.40;;
18383;SDS011;9318;48.644;9.456;2023-07-22T13:15:27;0.40;;;0.40;;
18383;SDS011;9318;48.644;9.456;2023-07-22T13:17:54;0.30;;;0.30;;
18383;SDS011;9318;48.644;9.456;2023-07-22T13:20:20;0.40;;;0.40;;
18383;SDS011;9318;48.644;9.456;2023-07-22T13:22:47;0.40;;;0.40;;
18383;SDS011;9318;48.644;9.456;2023-07-22T13:25:14;0.50;;;0.50;;
18383;SDS011;9318;48.644;9.456;2023-07-22T13:27:41;0.35;;;0.35;;
18383;SDS011;9318;48.644;9.456;2023-07-22T13:30:08;0.40;;;0.40;;
18383;SDS011;9318;48.644;9.456;2023-07-22T13:32:36;0.40;;;0.40;;
18383;SDS011;9318;48.644;9.456;2023-07-22T13:35:05;0.40;;;0.40;;
18383;SDS011;9318;48.644;9.456;2023-07-22T13:37:32;0.40;;;0.40;;
18383;SDS011;9318;48.644;9.456;2023-07-22T13:39:59;0.40;;;0.40;;
18383;SDS011;9318;48.644;9.456;2023-07-22T13:42:26;0.40;;;0.40;;
18383;SDS011;9318;48.644;9.456;2023-07-22T13:44:52;0.40;;;0.40;;
18383;SDS011;9318;48.644;9.456;2023-07-22T13:47:19;0.40;;;0.40;;
18383;SDS011;9318;48.644;9.456;2023-07-22T13:49:47;0.47;;;0.47;;
18383;SDS011;9318;48.644;9.456;2023-07-22T13:52:14;0.50;;;0.50;;
18383;SDS011;9318;48.644;9.456;2023-07-22T13:54:41;0.50;;;0.50;;
18383;SDS011;9318;48.644;9.456;2023-07-22T13:57:07;0.43;;;0.43;;
18383;SDS011;9318;48.644;9.456;2023-07-22T13:59:34;0.38;;;0.38;;
18383;SDS011;9318;48.644;9.456;2023-07-22T14:02:01;0.45;;;0.45;;
18383;SDS011;9318;48.644;9.456;2023-07-22T14:04:28;0.40;;;0.40;;
18383;SDS011;9318;48.644;9.456;2023-07-22T14:06:56;0.40;;;0.40;;
18383;SDS011;9318;48.644;9.456;2023-07-22T14:09:23;0.50;;;0.50;;
18383;SDS011;9318;48.644;9.456;2023-07-22T14:11:50;0.40;;;0.40;;
18383;SDS011;9318;48.644;9.456;2023-07-22T14:14:17;0.50;;;0.50;;
18383;SDS011;9318;48.644;9.456;2023-07-22T14:16:43;0.40;;;0.40;;
18383;SDS011;9318;48.644;9.456;2023-07-22T14:19:10;0.40;;;0.40;;
18383;SDS011;9318;48.644;9.456;2023-07-22T14:21:37;0.47;;;0.47;;
18383;SDS011;9318;48.644;9.456;2023-07-22T14:24:05;0.40;;;0.40;;
18383;SDS011;9318;48.644;9.456;2023-07-22T14:26:32;0.40;;;0.40;;
18383;SDS011;9318;48.644;9.456;2023-07-22T14:28:58;0.50;;;0.50;;
18383;SDS011;9318;48.644;9.456;2023-07-22T14:31:25;0.45;;;0.45;;
18383;SDS011;9318;48.644;9.456;2023-07-22T14:33:52;0.40;;;0.40;;
18383;SDS011;9318;48.644;9.456;2023-07-22T14:36:18;0.50;;;0.50;;
18383;SDS011;9318;48.644;9.456;2023-07-22T14:38:45;0.40;;;0.40;;
18383;SDS011;9318;48.644;9.456;2023-07-22T14:41:13;0.40;;;0.40;;
18383;SDS011;9318;48.644;9.456;2023-07-22T14:43:40;0.40;;;0.40;;
18383;SDS011;9318;48.644;9.456;2023-07-22T14:46:07;0.43;;;0.43;;
18383;SDS011;9318;48.644;9.456;2023-07-22T14:48:34;0.40;;;0.40;;
18383;SDS011;9318;48.644;9.456;2023-07-22T14:51:00;0.40;;;0.40;;
18383;SDS011;9318;48.644;9.456;2023-07-22T14:53:27;0.50;;;0.50;;
18383;SDS011;9318;48.644;9.456;2023-07-22T14:55:54;0.40;;;0.40;;
18383;SDS011;9318;48.644;9.456;2023-07-22T14:58:22;0.40;;;0.40;;
18383;SDS011;9318;48.644;9.456;2023-07-22T15:00:49;0.45;;;0.45;;
18383;SDS011;9318;48.644;9.456;2023-07-22T15:03:16;0.43;;;0.43;;